sensor_id;sensor_type;location;lat;lon;timestamp;P1;durP1;ratioP1;P2;durP2;ratioP2
18695;SDS011;22617;43.690;27.956;2023-02-28T00:04:57;9.53;;;5.47;;
18695;SDS011;22617;43.690;27.956;2023-02-28T00:10:04;7.83;;;5.57;;
18695;SDS011;22617;43.690;27.956;2023-02-28T00:15:11;7.67;;;5.10;;
18695;SDS011;22617;43.690;27.956;2023-02-28T00:20:15;9.60;;;5.87;;
18695;SDS011;22617;43.690;27.956;2023-02-28T00:25:20;10.20;;;6.87;;
18695;SDS011;22617;43.690;27.956;2023-02-28T00:30:25;9.20;;;6.20;;
18695;SDS011;22617;43.690;27.956;2023-02-28T00:35:29;9.93;;;6.37;;
18695;SDS011;22617;43.690;27.956;2023-02-28T00:40:33;8.77;;;5.90;;
18695;SDS011;22617;43.690;27.956;2023-02-28T00:45:38;7.63;;;5.53;;
18695;SDS011;22617;43.690;27.956;2023-02-28T00:50:41;7.47;;;5.50;;
18695;SDS011;22617;43.690;27.956;2023-02-28T00:55:44;7.07;;;5.00;;
18695;SDS011;22617;43.690;27.956;2023-02-28T01:00:50;6.90;;;4.90;;
18695;SDS011;22617;43.690;27.956;2023-02-28T01:05:54;5.60;;;4.30;;
18695;SDS011;22617;43.690;27.956;2023-02-28T01:10:57;5.60;;;4.73;;
18695;SDS011;22617;43.690;27.956;2023-02-28T01:16:11;5.70;;;4.00;;
18695;SDS011;22617;43.690;27.956;2023-02-28T01:21:16;6.20;;;4.60;;
18695;SDS011;22617;43.690;27.956;2023-02-28T01:26:21;6.33;;;4.43;;
18695;SDS011;22617;43.690;27.956;2023-02-28T01:31:27;6.80;;;4.17;;
18695;SDS011;22617;43.690;27.956;2023-02-28T01:36:31;5.73;;;4.27;;
18695;SDS011;22617;43.690;27.956;2023-02-28T01:41:35;5.53;;;4.30;;
18695;SDS011;22617;43.690;27.956;2023-02-28T01:46:40;5.90;;;4.07;;
18695;SDS011;22617;43.690;27.956;2023-02-28T01:51:45;6.83;;;4.03;;
18695;SDS011;22617;43.690;27.956;2023-02-28T01:56:53;6.70;;;4.23;;
18695;SDS011;22617;43.690;27.956;2023-02-28T02:02:01;4.73;;;3.60;;
18695;SDS011;22617;43.690;27.956;2023-02-28T02:07:06;5.57;;;3.93;;
18695;SDS011;22617;43.690;27.956;2023-02-28T02:12:13;5.93;;;4.30;;
18695;SDS011;22617;43.690;27.956;2023-02-28T02:17:32;5.70;;;4.20;;
18695;SDS011;22617;43.690;27.956;2023-02-28T02:22:52;7.47;;;4.90;;
18695;SDS011;22617;43.690;27.956;2023-02-28T02:39:36;8.13;;;5.20;;
18695;SDS011;22617;43.690;27.956;2023-02-28T02:44:50;8.20;;;5.00;;
18695;SDS011;22617;43.690;27.956;2023-02-28T02:49:59;8.03;;;5.43;;
18695;SDS011;22617;43.690;27.956;2023-02-28T02:55:09;8.67;;;5.60;;
18695;SDS011;22617;43.690;27.956;2023-02-28T03:00:16;9.43;;;5.43;;
18695;SDS011;22617;43.690;27.956;2023-02-28T03:05:23;10.73;;;6.83;;
18695;SDS011;22617;43.690;27.956;2023-02-28T03:10:36;10.37;;;6.70;;
18695;SDS011;22617;43.690;27.956;2023-02-28T03:15:45;11.67;;;7.27;;
18695;SDS011;22617;43.690;27.956;2023-02-28T03:21:02;10.97;;;6.80;;
18695;SDS011;22617;43.690;27.956;2023-02-28T03:26:19;11.93;;;7.10;;
18695;SDS011;22617;43.690;27.956;2023-02-28T03:31:26;13.23;;;7.83;;
18695;SDS011;22617;43.690;27.956;2023-02-28T03:36:34;13.70;;;8.27;;
18695;SDS011;22617;43.690;27.956;2023-02-28T03:41:47;15.03;;;8.40;;
18695;SDS011;22617;43.690;27.956;2023-02-28T03:46:56;13.30;;;8.10;;
18695;SDS011;22617;43.690;27.956;2023-02-28T03:52:04;17.87;;;8.80;;
18695;SDS011;22617;43.690;27.956;2023-02-28T03:57:15;14.40;;;8.07;;
18695;SDS011;22617;43.690;27.956;2023-02-28T04:02:25;16.83;;;9.67;;
18695;SDS011;22617;43.690;27.956;2023-02-28T04:07:30;16.50;;;9.33;;
18695;SDS011;22617;43.690;27.956;2023-02-28T04:12:35;17.90;;;9.00;;
18695;SDS011;22617;43.690;27.956;2023-02-28T04:17:39;15.27;;;8.77;;
18695;SDS011;22617;43.690;27.956;2023-02-28T04:22:42;19.83;;;9.47;;
18695;SDS011;22617;43.690;27.956;2023-02-28T04:27:47;18.87;;;10.27;;
18695;SDS011;22617;43.690;27.956;2023-02-28T04:32:51;18.57;;;10.30;;
18695;SDS011;22617;43.690;27.956;2023-02-28T04:37:54;22.17;;;11.13;;
18695;SDS011;22617;43.690;27.956;2023-02-28T04:42:59;29.13;;;12.97;;
18695;SDS011;22617;43.690;27.956;2023-02-28T04:48:02;24.23;;;11.27;;
18695;SDS011;22617;43.690;27.956;2023-02-28T04:53:07;28.77;;;13.13;;
18695;SDS011;22617;43.690;27.956;2023-02-28T04:58:12;25.73;;;12.00;;
18695;SDS011;22617;43.690;27.956;2023-02-28T05:03:15;30.63;;;13.80;;
18695;SDS011;22617;43.690;27.956;2023-02-28T05:08:19;32.13;;;13.23;;
18695;SDS011;22617;43.690;27.956;2023-02-28T05:13:23;29.57;;;13.07;;
18695;SDS011;22617;43.690;27.956;2023-02-28T05:18:27;29.43;;;13.47;;
18695;SDS011;22617;43.690;27.956;2023-02-28T05:23:31;29.47;;;13.13;;
18695;SDS011;22617;43.690;27.956;2023-02-28T05:28:36;30.33;;;13.60;;
18695;SDS011;22617;43.690;27.956;2023-02-28T05:33:39;32.53;;;14.17;;
18695;SDS011;22617;43.690;27.956;2023-02-28T05:38:45;31.90;;;14.47;;
18695;SDS011;22617;43.690;27.956;2023-02-28T05:43:50;33.60;;;14.07;;
18695;SDS011;22617;43.690;27.956;2023-02-28T05:48:54;36.13;;;14.77;;
18695;SDS011;22617;43.690;27.956;2023-02-28T05:54:00;39.33;;;16.17;;
18695;SDS011;22617;43.690;27.956;2023-02-28T05:59:06;39.30;;;16.00;;
18695;SDS011;22617;43.690;27.956;2023-02-28T06:04:10;33.87;;;14.90;;
18695;SDS011;22617;43.690;27.956;2023-02-28T06:09:31;22.60;;;10.93;;
18695;SDS011;22617;43.690;27.956;2023-02-28T06:14:36;22.17;;;10.53;;
18695;SDS011;22617;43.690;27.956;2023-02-28T06:19:40;25.40;;;11.70;;
18695;SDS011;22617;43.690;27.956;2023-02-28T06:24:43;27.00;;;12.40;;
18695;SDS011;22617;43.690;27.956;2023-02-28T06:29:48;25.60;;;11.80;;
18695;SDS011;22617;43.690;27.956;2023-02-28T06:34:56;28.50;;;12.90;;
18695;SDS011;22617;43.690;27.956;2023-02-28T06:39:59;26.47;;;11.97;;
18695;SDS011;22617;43.690;27.956;2023-02-28T06:45:06;25.80;;;11.93;;
18695;SDS011;22617;43.690;27.956;2023-02-28T06:50:11;33.63;;;14.67;;
18695;SDS011;22617;43.690;27.956;2023-02-28T06:55:16;27.43;;;12.43;;
18695;SDS011;22617;43.690;27.956;2023-02-28T07:00:21;27.40;;;12.47;;
18695;SDS011;22617;43.690;27.956;2023-02-28T07:05:25;23.67;;;11.67;;
18695;SDS011;22617;43.690;27.956;2023-02-28T07:10:28;21.87;;;10.40;;
18695;SDS011;22617;43.690;27.956;2023-02-28T07:15:33;21.40;;;10.27;;
18695;SDS011;22617;43.690;27.956;2023-02-28T07:20:42;19.80;;;9.30;;
18695;SDS011;22617;43.690;27.956;2023-02-28T07:25:45;18.13;;;9.20;;
18695;SDS011;22617;43.690;27.956;2023-02-28T07:30:51;18.63;;;9.30;;
18695;SDS011;22617;43.690;27.956;2023-02-28T07:35:59;18.90;;;8.93;;
18695;SDS011;22617;43.690;27.956;2023-02-28T07:41:04;16.50;;;8.73;;
18695;SDS011;22617;43.690;27.956;2023-02-28T07:46:09;15.77;;;8.73;;
18695;SDS011;22617;43.690;27.956;2023-02-28T07:51:14;20.57;;;11.07;;
18695;SDS011;22617;43.690;27.956;2023-02-28T07:56:18;17.33;;;9.57;;
18695;SDS011;22617;43.690;27.956;2023-02-28T08:01:22;16.20;;;9.33;;
18695;SDS011;22617;43.690;27.956;2023-02-28T08:06:26;14.73;;;8.43;;
18695;SDS011;22617;43.690;27.956;2023-02-28T08:11:29;18.03;;;9.27;;
18695;SDS011;22617;43.690;27.956;2023-02-28T08:16:34;17.50;;;9.43;;
18695;SDS011;22617;43.690;27.956;2023-02-28T08:21:38;19.33;;;10.00;;
18695;SDS011;22617;43.690;27.956;2023-02-28T08:26:42;16.87;;;9.10;;
18695;SDS011;22617;43.690;27.956;2023-02-28T08:31:47;17.57;;;9.70;;
18695;SDS011;22617;43.690;27.956;2023-02-28T08:36:51;19.03;;;10.27;;
18695;SDS011;22617;43.690;27.956;2023-02-28T08:41:55;17.63;;;9.60;;
18695;SDS011;22617;43.690;27.956;2023-02-28T08:47:09;19.17;;;10.80;;
18695;SDS011;22617;43.690;27.956;2023-02-28T08:52:13;20.43;;;10.27;;
18695;SDS011;22617;43.690;27.956;2023-02-28T08:57:16;20.10;;;10.27;;
18695;SDS011;22617;43.690;27.956;2023-02-28T09:02:21;17.93;;;10.13;;
18695;SDS011;22617;43.690;27.956;2023-02-28T09:07:25;17.10;;;9.40;;
18695;SDS011;22617;43.690;27.956;2023-02-28T09:12:28;18.67;;;10.10;;
18695;SDS011;22617;43.690;27.956;2023-02-28T09:17:37;19.97;;;10.80;;
18695;SDS011;22617;43.690;27.956;2023-02-28T09:22:41;18.67;;;9.90;;
18695;SDS011;22617;43.690;27.956;2023-02-28T09:27:44;18.17;;;9.80;;
18695;SDS011;22617;43.690;27.956;2023-02-28T09:32:49;15.73;;;8.47;;
18695;SDS011;22617;43.690;27.956;2023-02-28T09:37:55;16.97;;;9.47;;
18695;SDS011;22617;43.690;27.956;2023-02-28T09:42:59;18.93;;;10.27;;
18695;SDS011;22617;43.690;27.956;2023-02-28T09:48:06;25.33;;;10.30;;
18695;SDS011;22617;43.690;27.956;2023-02-28T09:53:18;19.20;;;10.30;;
18695;SDS011;22617;43.690;27.956;2023-02-28T09:58:32;18.63;;;10.07;;
18695;SDS011;22617;43.690;27.956;2023-02-28T10:03:42;19.37;;;10.67;;
18695;SDS011;22617;43.690;27.956;2023-02-28T10:08:51;20.37;;;12.43;;
18695;SDS011;22617;43.690;27.956;2023-02-28T10:14:04;20.13;;;11.27;;
18695;SDS011;22617;43.690;27.956;2023-02-28T10:19:16;20.97;;;11.50;;
18695;SDS011;22617;43.690;27.956;2023-02-28T10:24:25;23.70;;;11.63;;
18695;SDS011;22617;43.690;27.956;2023-02-28T10:29:31;19.57;;;11.43;;
18695;SDS011;22617;43.690;27.956;2023-02-28T10:34:37;22.93;;;12.30;;
18695;SDS011;22617;43.690;27.956;2023-02-28T10:39:42;20.17;;;11.63;;
18695;SDS011;22617;43.690;27.956;2023-02-28T10:44:48;19.90;;;11.63;;
18695;SDS011;22617;43.690;27.956;2023-02-28T10:49:53;23.30;;;13.17;;
18695;SDS011;22617;43.690;27.956;2023-02-28T10:54:57;24.30;;;12.43;;
18695;SDS011;22617;43.690;27.956;2023-02-28T11:00:18;19.43;;;11.33;;
18695;SDS011;22617;43.690;27.956;2023-02-28T11:05:26;21.73;;;12.30;;
18695;SDS011;22617;43.690;27.956;2023-02-28T11:10:32;23.43;;;12.07;;
18695;SDS011;22617;43.690;27.956;2023-02-28T11:15:36;20.87;;;11.10;;
18695;SDS011;22617;43.690;27.956;2023-02-28T11:20:41;21.07;;;10.30;;
18695;SDS011;22617;43.690;27.956;2023-02-28T11:25:50;20.90;;;11.00;;
18695;SDS011;22617;43.690;27.956;2023-02-28T11:36:23;21.63;;;10.43;;
18695;SDS011;22617;43.690;27.956;2023-02-28T11:47:01;17.53;;;10.13;;
18695;SDS011;22617;43.690;27.956;2023-02-28T11:52:13;21.73;;;11.17;;
18695;SDS011;22617;43.690;27.956;2023-02-28T11:57:35;21.30;;;11.57;;
18695;SDS011;22617;43.690;27.956;2023-02-28T12:02:59;21.23;;;11.87;;
18695;SDS011;22617;43.690;27.956;2023-02-28T12:08:25;25.83;;;12.60;;
18695;SDS011;22617;43.690;27.956;2023-02-28T12:13:42;23.57;;;12.97;;
18695;SDS011;22617;43.690;27.956;2023-02-28T12:18:57;22.63;;;12.37;;
18695;SDS011;22617;43.690;27.956;2023-02-28T12:24:22;25.87;;;13.30;;
18695;SDS011;22617;43.690;27.956;2023-02-28T12:29:41;24.43;;;13.23;;
18695;SDS011;22617;43.690;27.956;2023-02-28T12:34:51;28.53;;;13.57;;
18695;SDS011;22617;43.690;27.956;2023-02-28T12:40:00;28.63;;;13.07;;
18695;SDS011;22617;43.690;27.956;2023-02-28T12:45:09;25.83;;;13.37;;
18695;SDS011;22617;43.690;27.956;2023-02-28T12:50:14;27.73;;;12.73;;
18695;SDS011;22617;43.690;27.956;2023-02-28T12:55:21;30.77;;;14.43;;
18695;SDS011;22617;43.690;27.956;2023-02-28T13:00:32;27.30;;;12.93;;
18695;SDS011;22617;43.690;27.956;2023-02-28T13:05:42;33.47;;;15.73;;
18695;SDS011;22617;43.690;27.956;2023-02-28T13:11:07;32.03;;;15.90;;
18695;SDS011;22617;43.690;27.956;2023-02-28T13:16:22;29.37;;;14.30;;
18695;SDS011;22617;43.690;27.956;2023-02-28T13:21:26;32.53;;;13.90;;
18695;SDS011;22617;43.690;27.956;2023-02-28T13:32:25;26.10;;;12.57;;
18695;SDS011;22617;43.690;27.956;2023-02-28T13:37:35;26.13;;;13.10;;
18695;SDS011;22617;43.690;27.956;2023-02-28T13:42:46;29.70;;;13.97;;
18695;SDS011;22617;43.690;27.956;2023-02-28T13:47:54;28.50;;;12.90;;
18695;SDS011;22617;43.690;27.956;2023-02-28T14:07:19;29.03;;;13.10;;
18695;SDS011;22617;43.690;27.956;2023-02-28T14:18:49;26.00;;;11.50;;
18695;SDS011;22617;43.690;27.956;2023-02-28T14:35:56;21.17;;;10.67;;
18695;SDS011;22617;43.690;27.956;2023-02-28T14:41:22;23.97;;;11.20;;
18695;SDS011;22617;43.690;27.956;2023-02-28T14:46:30;26.60;;;13.07;;
18695;SDS011;22617;43.690;27.956;2023-02-28T14:51:47;27.47;;;12.87;;
18695;SDS011;22617;43.690;27.956;2023-02-28T14:57:03;27.63;;;13.00;;
18695;SDS011;22617;43.690;27.956;2023-02-28T15:02:20;27.70;;;12.50;;
18695;SDS011;22617;43.690;27.956;2023-02-28T15:07:31;26.13;;;11.90;;
18695;SDS011;22617;43.690;27.956;2023-02-28T15:12:39;25.27;;;11.70;;
18695;SDS011;22617;43.690;27.956;2023-02-28T15:17:51;24.20;;;12.07;;
18695;SDS011;22617;43.690;27.956;2023-02-28T15:29:17;29.50;;;14.40;;
18695;SDS011;22617;43.690;27.956;2023-02-28T15:34:37;29.40;;;13.00;;
18695;SDS011;22617;43.690;27.956;2023-02-28T15:39:48;25.23;;;11.70;;
18695;SDS011;22617;43.690;27.956;2023-02-28T15:44:51;29.90;;;13.03;;
18695;SDS011;22617;43.690;27.956;2023-02-28T15:49:56;26.73;;;12.33;;
18695;SDS011;22617;43.690;27.956;2023-02-28T15:55:10;23.57;;;11.37;;
18695;SDS011;22617;43.690;27.956;2023-02-28T16:01:04;23.67;;;11.53;;
18695;SDS011;22617;43.690;27.956;2023-02-28T16:17:24;26.43;;;12.50;;
18695;SDS011;22617;43.690;27.956;2023-02-28T16:22:30;28.60;;;12.50;;
18695;SDS011;22617;43.690;27.956;2023-02-28T16:27:36;28.43;;;13.07;;
18695;SDS011;22617;43.690;27.956;2023-02-28T16:32:44;31.03;;;13.30;;
18695;SDS011;22617;43.690;27.956;2023-02-28T16:37:55;35.57;;;15.20;;
18695;SDS011;22617;43.690;27.956;2023-02-28T16:43:03;29.50;;;13.37;;
18695;SDS011;22617;43.690;27.956;2023-02-28T16:48:11;32.17;;;14.33;;
18695;SDS011;22617;43.690;27.956;2023-02-28T16:53:23;30.07;;;13.73;;
18695;SDS011;22617;43.690;27.956;2023-02-28T16:58:29;51.30;;;22.13;;
18695;SDS011;22617;43.690;27.956;2023-02-28T17:03:33;40.13;;;21.00;;
18695;SDS011;22617;43.690;27.956;2023-02-28T17:08:39;37.43;;;16.23;;
18695;SDS011;22617;43.690;27.956;2023-02-28T17:13:45;25.80;;;13.93;;
18695;SDS011;22617;43.690;27.956;2023-02-28T17:18:49;23.87;;;12.40;;
18695;SDS011;22617;43.690;27.956;2023-02-28T17:23:54;25.63;;;12.40;;
18695;SDS011;22617;43.690;27.956;2023-02-28T17:29:01;25.07;;;12.83;;
18695;SDS011;22617;43.690;27.956;2023-02-28T17:34:05;20.40;;;10.40;;
18695;SDS011;22617;43.690;27.956;2023-02-28T17:39:09;20.13;;;10.80;;
18695;SDS011;22617;43.690;27.956;2023-02-28T17:44:18;24.50;;;12.03;;
18695;SDS011;22617;43.690;27.956;2023-02-28T17:49:25;20.87;;;10.27;;
18695;SDS011;22617;43.690;27.956;2023-02-28T17:54:30;20.47;;;9.47;;
18695;SDS011;22617;43.690;27.956;2023-02-28T17:59:35;19.33;;;9.53;;
18695;SDS011;22617;43.690;27.956;2023-02-28T18:04:39;22.10;;;10.20;;
18695;SDS011;22617;43.690;27.956;2023-02-28T18:09:44;23.13;;;11.77;;
18695;SDS011;22617;43.690;27.956;2023-02-28T18:14:50;21.93;;;10.53;;
18695;SDS011;22617;43.690;27.956;2023-02-28T18:19:55;22.23;;;10.67;;
18695;SDS011;22617;43.690;27.956;2023-02-28T18:24:59;24.33;;;9.90;;
18695;SDS011;22617;43.690;27.956;2023-02-28T18:30:08;23.57;;;10.60;;
18695;SDS011;22617;43.690;27.956;2023-02-28T18:35:15;21.33;;;10.47;;
18695;SDS011;22617;43.690;27.956;2023-02-28T18:40:36;24.63;;;10.20;;
18695;SDS011;22617;43.690;27.956;2023-02-28T18:45:42;21.77;;;11.17;;
18695;SDS011;22617;43.690;27.956;2023-02-28T18:50:47;24.57;;;10.57;;
18695;SDS011;22617;43.690;27.956;2023-02-28T18:55:54;25.40;;;10.07;;
18695;SDS011;22617;43.690;27.956;2023-02-28T19:01:11;18.77;;;9.60;;
18695;SDS011;22617;43.690;27.956;2023-02-28T19:06:19;23.50;;;10.47;;
18695;SDS011;22617;43.690;27.956;2023-02-28T19:11:23;23.60;;;10.50;;
18695;SDS011;22617;43.690;27.956;2023-02-28T19:23:21;20.43;;;9.60;;
18695;SDS011;22617;43.690;27.956;2023-02-28T19:44:41;24.40;;;10.07;;
18695;SDS011;22617;43.690;27.956;2023-02-28T19:49:46;23.03;;;11.00;;
18695;SDS011;22617;43.690;27.956;2023-02-28T19:54:53;19.33;;;8.80;;
18695;SDS011;22617;43.690;27.956;2023-02-28T20:00:03;20.23;;;9.17;;
18695;SDS011;22617;43.690;27.956;2023-02-28T20:05:13;22.17;;;9.00;;
18695;SDS011;22617;43.690;27.956;2023-02-28T20:10:17;17.47;;;8.40;;
18695;SDS011;22617;43.690;27.956;2023-02-28T20:15:23;18.93;;;8.30;;
18695;SDS011;22617;43.690;27.956;2023-02-28T20:20:30;18.97;;;8.30;;
18695;SDS011;22617;43.690;27.956;2023-02-28T20:25:37;17.30;;;7.87;;
18695;SDS011;22617;43.690;27.956;2023-02-28T20:30:44;19.27;;;8.13;;
18695;SDS011;22617;43.690;27.956;2023-02-28T20:35:56;19.03;;;8.87;;
18695;SDS011;22617;43.690;27.956;2023-02-28T20:41:01;19.27;;;8.40;;
18695;SDS011;22617;43.690;27.956;2023-02-28T20:46:10;19.53;;;8.97;;
18695;SDS011;22617;43.690;27.956;2023-02-28T20:51:21;19.83;;;9.43;;
18695;SDS011;22617;43.690;27.956;2023-02-28T20:56:27;16.63;;;7.37;;
18695;SDS011;22617;43.690;27.956;2023-02-28T21:01:33;16.10;;;6.93;;
18695;SDS011;22617;43.690;27.956;2023-02-28T21:06:39;15.07;;;6.80;;
18695;SDS011;22617;43.690;27.956;2023-02-28T21:11:47;19.73;;;7.37;;
18695;SDS011;22617;43.690;27.956;2023-02-28T21:16:58;18.53;;;7.33;;
18695;SDS011;22617;43.690;27.956;2023-02-28T21:22:03;15.07;;;7.63;;
18695;SDS011;22617;43.690;27.956;2023-02-28T21:27:09;15.80;;;7.07;;
18695;SDS011;22617;43.690;27.956;2023-02-28T21:32:15;15.97;;;7.23;;
18695;SDS011;22617;43.690;27.956;2023-02-28T21:37:21;16.77;;;6.37;;
18695;SDS011;22617;43.690;27.956;2023-02-28T21:42:27;14.50;;;6.20;;
18695;SDS011;22617;43.690;27.956;2023-02-28T21:47:33;15.83;;;6.57;;
18695;SDS011;22617;43.690;27.956;2023-02-28T21:52:40;14.30;;;6.37;;
18695;SDS011;22617;43.690;27.956;2023-02-28T21:57:45;14.50;;;6.67;;
18695;SDS011;22617;43.690;27.956;2023-02-28T22:02:52;14.90;;;5.90;;
18695;SDS011;22617;43.690;27.956;2023-02-28T22:07:56;14.07;;;6.60;;
18695;SDS011;22617;43.690;27.956;2023-02-28T22:13:03;14.77;;;6.30;;
18695;SDS011;22617;43.690;27.956;2023-02-28T22:18:11;11.87;;;6.17;;
18695;SDS011;22617;43.690;27.956;2023-02-28T22:23:16;14.90;;;6.33;;
18695;SDS011;22617;43.690;27.956;2023-02-28T22:28:21;18.57;;;7.23;;
18695;SDS011;22617;43.690;27.956;2023-02-28T22:33:27;12.50;;;6.40;;
18695;SDS011;22617;43.690;27.956;2023-02-28T22:38:34;14.20;;;5.97;;
18695;SDS011;22617;43.690;27.956;2023-02-28T22:43:40;14.13;;;6.13;;
18695;SDS011;22617;43.690;27.956;2023-02-28T22:48:48;16.97;;;6.37;;
18695;SDS011;22617;43.690;27.956;2023-02-28T22:53:55;14.13;;;6.40;;
18695;SDS011;22617;43.690;27.956;2023-02-28T22:59:01;13.53;;;6.30;;
18695;SDS011;22617;43.690;27.956;2023-02-28T23:04:08;15.30;;;6.73;;
18695;SDS011;22617;43.690;27.956;2023-02-28T23:09:14;16.57;;;6.03;;
18695;SDS011;22617;43.690;27.956;2023-02-28T23:14:21;11.13;;;5.60;;
18695;SDS011;22617;43.690;27.956;2023-02-28T23:19:32;19.97;;;6.87;;
18695;SDS011;22617;43.690;27.956;2023-02-28T23:24:39;13.27;;;6.53;;
18695;SDS011;22617;43.690;27.956;2023-02-28T23:29:47;16.13;;;6.60;;
18695;SDS011;22617;43.690;27.956;2023-02-28T23:34:54;17.87;;;6.70;;
18695;SDS011;22617;43.690;27.956;2023-02-28T23:40:01;15.50;;;6.57;;
18695;SDS011;22617;43.690;27.956;2023-02-28T23:45:07;13.57;;;6.27;;
18695;SDS011;22617;43.690;27.956;2023-02-28T23:50:14;19.30;;;7.47;;
18695;SDS011;22617;43.690;27.956;2023-02-28T23:55:19;17.30;;;7.60;;
